Airfield :
LOGIN :

Register | Disclaimer

   EN    FR    IT 

 










Legend :    VFR   Marginal VFR   IFR   Intensive IFR   Very Intensive IFR
Visi :
Ceiling :
>= 8 km
>= 3000ft
5 to 8 km
1000 to 3000 ft
1500m to 5 km
500 to 1000 ft
800 to 1500m
200 to 500 ft
< 800m
< 200 ft
Symbols :   Thunderstorms  Fog  Heavy snow  Heavy precipitations  Wind > 20 kt
SIGMETs :     Misc.  Thunderstorms  Icing  Turbulence  Mountain Waves  Volcanic Ashes






- Airport Elevation : 26 ft
- IATA code : BIA


LFKB - Bastia

CURRENT METAR :
  • 270900Z AUTO 20003KT 170V230 9999 OVC018 10/08 Q1024 TEMPO 07010KT

EXPIRED METARs :
  • 270830Z AUTO VRB03KT 9999 OVC017 09/07 Q1024 NOSIG
  • 270800Z AUTO 20004KT 9999 OVC017 08/06 Q1024 TEMPO 0300 FG VV///
  • 270730Z AUTO 22005KT 9999 OVC017 07/05 Q1024 TEMPO 0300 FG VV///
  • 270700Z AUTO 22005KT 9999 OVC014 07/06 Q1024 TEMPO 0300 FG VV///
  • 270630Z AUTO 23006KT 9999 OVC013 06/05 Q1024 TEMPO 0300 FG VV///

TAF TAF LFKB
Valid from the 27 at 09:00 until the 28 at 09:00 UTC


270800Z 2709/2809 23005KT 9999 BKN017 TX15/2712Z TN05/2805Z
TEMPO 2709/2716 07010KT
TEMPO 2716/2721 BKN010
BECMG 2721/2723 CAVOK
ATIS : +33 4 95 59 19 40



MET'MAP, your aeronautical weather chart ! - Copyright ORBIFLY December 2007 - Disclaimer

ORBIFLY MET'MAP TEAM :

Programming & Development : Alexandra Zaïnal
Concept & original design : Baudouin d'Aumeries
Assistance for programming : Marc-Olivier Méhu
Technical & hardware support : Manuel Goepfert

Contact : metmap@orbifly.com




SOURCES & CREDITS :

   NOAA